This is the latest recevied weather packets stored in our database for station/object W8AN. If no packets are shown the sender has not sent any weather packets the latest 10 day(s).
| Time | Temp. | Humidity | Pressure | Rain* | Wind** | Luminosity | Snow |
|---|---|---|---|---|---|---|---|
| 1777745893 | 8.33° C | 48% | 4272.4 hPa | 0 mm | - | 299 W/m² | - |
| 1777745592 | 8.33° C | 46% | 4272.6 hPa | 0 mm | - | 355 W/m² | - |
| 1777745289 | 8.33° C | 47% | 4272.7 hPa | 0 mm | - | 360 W/m² | - |
| 1777744986 | 8.33° C | 47% | 4272.8 hPa | 0 mm | - | 374 W/m² | - |
| 1777744682 | 9.44° C | 48% | 4272.8 hPa | 0 mm | - | 525 W/m² | - |
| 1777744376 | 8.89° C | 46% | 4272.6 hPa | 0 mm | - | 452 W/m² | - |
| 1777744074 | 8.33° C | 46% | 4272.8 hPa | 0 mm | - | 470 W/m² | - |
| 1777743771 | 7.78° C | 49% | 4272.7 hPa | 0 mm | - | 456 W/m² | - |
| 1777743467 | 7.78° C | 51% | 4272.9 hPa | 0 mm | - | 373 W/m² | - |
| 1777743165 | 7.78° C | 53% | 4272.9 hPa | 0 mm | - | 304 W/m² | - |
| 1777742863 | 7.22° C | 54% | 4273.1 hPa | 0 mm | - | 262 W/m² | - |
| 1777742559 | 7.22° C | 51% | 4272.8 hPa | 0 mm | - | 243 W/m² | - |
| 1777742255 | 7.22° C | 53% | 4273 hPa | 0 mm | - | 261 W/m² | - |
| 1777741952 | 7.22° C | 50% | 4272.8 hPa | 0 mm | - | 328 W/m² | - |
| 1777741649 | 7.78° C | 50% | 4273.1 hPa | 0 mm | - | 484 W/m² | - |
| 1777741346 | 7.78° C | 48% | 4273 hPa | 0 mm | - | 460 W/m² | - |
| 1777741041 | 7.22° C | 47% | 4272.9 hPa | 0 mm | - | 393 W/m² | - |
| 1777740739 | 7.22° C | 48% | 4273.2 hPa | 0 mm | - | 328 W/m² | - |
| 1777740435 | 7.78° C | 54% | 4273.3 hPa | 0 mm | - | 298 W/m² | - |
| 1777740133 | 7.22° C | 57% | 4273.2 hPa | 0 mm | - | 302 W/m² | - |
| 1777739828 | 7.22° C | 54% | 4273.1 hPa | 0 mm | - | 332 W/m² | - |
| 1777739525 | 7.22° C | 55% | 4273.2 hPa | 0 mm | - | 359 W/m² | - |
| 1777739222 | 6.67° C | 50% | 4273.4 hPa | 0 mm | - | 371 W/m² | - |
| 1777738919 | 7.22° C | 52% | 4273.3 hPa | 0 mm | - | 352 W/m² | - |
| 1777738616 | 6.67° C | 54% | 4273.5 hPa | 0 mm | - | 310 W/m² | - |
* Rain latest hour (hover to see other rain measurements)
** Current wind speed in m/s (hover to see current wind gust speed)